Time;durP1;ratioP1;P1;durP2;ratioP2;P2;SDS_P1;SDS_P2;PMS_P1;PMS_P2;Temp;Humidity;BMP_temperature;BMP_pressure;BME280_temperature;BME280_humidity;BME280_pressure;Samples;Min_cycle;Max_cycle;Signal;HPM_P1;HPM_P2
2023/04/06 00:01:24;;;;;;;16.87;11.60;;;;;;;6.24;43.86;97658.84;5049582;28;20196;-69
2023/04/06 00:03:50;;;;;;;20.53;12.17;;;;;;;6.53;42.13;97656.69;5050691;28;20186;-69
2023/04/06 00:06:15;;;;;;;19.33;13.40;;;;;;;6.70;42.18;97651.94;5050119;28;20251;-67
2023/04/06 00:08:41;;;;;;;17.80;10.40;;;;;;;6.51;42.13;97648.16;5050892;28;20595;-70
2023/04/06 00:11:06;;;;;;;14.70;10.50;;;;;;;6.70;40.99;97651.94;5058110;28;20179;-69
2023/04/06 00:13:32;;;;;;;13.53;10.30;;;;;;;6.72;41.46;97650.06;5057862;28;20653;-69
2023/04/06 00:15:58;;;;;;;18.93;12.20;;;;;;;6.85;41.50;97650.78;5038289;28;20204;-70
2023/04/06 00:18:23;;;;;;;14.07;10.17;;;;;;;6.75;42.28;97649.84;5050849;28;20294;-71
2023/04/06 00:20:50;;;;;;;12.73;9.37;;;;;;;6.70;42.31;97646.75;5054699;28;20981;-69
2023/04/06 00:23:16;;;;;;;17.67;12.10;;;;;;;6.83;42.01;97647.47;5049135;28;20175;-69
2023/04/06 00:25:41;;;;;;;24.97;14.80;;;;;;;6.80;42.07;97652.94;5048322;28;20850;-69
2023/04/06 00:28:07;;;;;;;16.10;12.50;;;;;;;6.88;41.56;97647.94;5050717;28;20706;-71
2023/04/06 00:30:32;;;;;;;21.23;12.87;;;;;;;6.91;41.43;97645.13;5058274;28;20228;-68
2023/04/06 00:32:58;;;;;;;20.87;13.93;;;;;;;6.93;41.49;97647.59;5050474;28;20191;-69
2023/04/06 00:35:23;;;;;;;12.07;9.10;;;;;;;6.78;41.73;97641.78;5049021;28;20242;-70
2023/04/06 00:37:49;;;;;;;16.83;9.60;;;;;;;6.59;42.61;97639.75;5054920;28;20195;-70
2023/04/06 00:40:15;;;;;;;13.87;9.83;;;;;;;6.64;43.29;97635.00;5046901;28;20199;-69
2023/04/06 00:42:41;;;;;;;12.23;9.30;;;;;;;6.58;43.25;97638.09;5037660;28;20629;-69
2023/04/06 00:45:07;;;;;;;19.40;12.30;;;;;;;6.57;43.78;97632.06;5054870;28;20428;-69
2023/04/06 00:47:33;;;;;;;13.40;9.80;;;;;;;6.56;43.52;97629.56;5042769;28;20832;-71
2023/04/06 00:49:58;;;;;;;13.13;9.13;;;;;;;6.59;43.22;97629.34;5058127;28;20464;-69
2023/04/06 00:52:24;;;;;;;15.70;10.00;;;;;;;6.67;42.84;97626.16;5049433;28;20433;-70
2023/04/06 00:54:50;;;;;;;12.80;10.27;;;;;;;6.64;42.48;97627.19;5049435;28;20632;-70
2023/04/06 00:57:16;;;;;;;13.20;9.37;;;;;;;6.61;42.76;97627.47;5042417;28;20179;-69
2023/04/06 00:59:42;;;;;;;12.27;9.53;;;;;;;6.49;43.15;97620.59;5057392;28;20425;-70
2023/04/06 01:02:08;;;;;;;16.40;9.80;;;;;;;6.25;43.78;97622.31;5046268;28;20183;-68
2023/04/06 01:04:33;;;;;;;11.90;8.37;;;;;;;5.90;44.58;97623.13;5054418;28;20433;-67
2023/04/06 01:06:59;;;;;;;26.13;17.47;;;;;;;6.02;44.23;97618.78;5047404;28;20425;-69
2023/04/06 01:09:24;;;;;;;14.77;10.13;;;;;;;6.09;44.29;97624.38;5049295;28;20202;-70
2023/04/06 01:11:50;;;;;;;16.93;11.33;;;;;;;6.12;43.96;97611.16;5044029;28;20817;-69
2023/04/06 01:14:15;;;;;;;20.60;15.03;;;;;;;6.15;44.15;97618.72;5046011;28;20180;-69
2023/04/06 01:16:41;;;;;;;13.03;9.60;;;;;;;6.15;44.50;97610.94;5050139;28;20226;-70
2023/04/06 01:19:13;;;;;;;17.70;10.00;;;;;;;6.13;44.63;97613.63;5048897;28;20650;-70
2023/04/06 01:21:40;;;;;;;21.43;10.47;;;;;;;6.09;44.42;97612.22;5046298;28;20183;-70
2023/04/06 01:24:06;;;;;;;25.20;16.23;;;;;;;6.16;44.55;97612.59;5049942;28;20433;-69
2023/04/06 01:26:32;;;;;;;15.87;10.37;;;;;;;6.20;44.29;97610.56;5049041;28;20441;-69
2023/04/06 01:28:57;;;;;;;23.60;15.37;;;;;;;6.25;44.07;97608.44;5047241;28;20918;-69
2023/04/06 01:31:23;;;;;;;23.50;15.63;;;;;;;6.29;43.84;97609.88;5048560;28;20432;-70
2023/04/06 01:33:48;;;;;;;25.63;15.97;;;;;;;6.28;44.02;97609.06;5044196;28;20270;-69
2023/04/06 01:36:15;;;;;;;20.63;14.40;;;;;;;6.38;43.79;97606.56;5046360;28;20256;-70
2023/04/06 01:38:41;;;;;;;21.37;14.40;;;;;;;6.37;43.76;97610.13;5058450;28;20663;-70
2023/04/06 01:41:08;;;;;;;26.43;14.60;;;;;;;6.45;43.71;97606.94;5060714;28;21035;-69
2023/04/06 01:43:34;;;;;;;11.23;9.20;;;;;;;6.42;43.43;97607.19;5052623;28;20433;-66
2023/04/06 01:45:59;;;;;;;12.97;9.83;;;;;;;6.34;43.90;97601.72;5049903;28;20499;-70
2023/04/06 01:48:26;;;;;;;12.67;9.50;;;;;;;6.34;43.63;97596.50;5045289;28;20426;-68
2023/04/06 01:50:51;;;;;;;13.40;9.33;;;;;;;6.27;43.63;97599.59;5042372;28;20215;-70
2023/04/06 01:53:17;;;;;;;15.47;10.00;;;;;;;6.20;44.01;97603.59;5055690;28;20509;-69
2023/04/06 01:55:42;;;;;;;16.87;9.53;;;;;;;6.12;44.26;97596.34;5048321;28;20253;-70
2023/04/06 01:58:07;;;;;;;11.70;9.43;;;;;;;6.13;44.23;97592.81;5048336;28;20574;-69
2023/04/06 02:00:33;;;;;;;13.10;9.40;;;;;;;6.18;44.45;97594.25;5051178;28;20190;-69
2023/04/06 02:02:58;;;;;;;12.10;9.43;;;;;;;6.19;43.92;97583.69;5059289;28;20265;-69
2023/04/06 02:05:25;;;;;;;13.03;10.10;;;;;;;6.17;43.92;97588.22;5044359;28;20198;-70
2023/04/06 02:07:51;;;;;;;13.43;9.80;;;;;;;6.05;44.16;97589.94;5040340;28;20182;-69
2023/04/06 02:10:17;;;;;;;13.60;10.00;;;;;;;5.99;43.98;97596.44;5053009;28;20438;-68
2023/04/06 02:12:42;;;;;;;12.17;9.50;;;;;;;6.01;44.65;97595.50;5047635;28;20433;-69
2023/04/06 02:15:08;;;;;;;14.87;9.60;;;;;;;5.96;44.47;97595.81;5050825;28;20215;-69
2023/04/06 02:17:33;;;;;;;13.73;9.80;;;;;;;5.95;44.24;97592.38;5044430;28;20211;-68
2023/04/06 02:19:59;;;;;;;14.60;10.17;;;;;;;5.94;44.36;97590.72;5048242;28;20299;-70
2023/04/06 02:22:24;;;;;;;12.20;9.70;;;;;;;6.04;44.09;97588.28;5051550;28;20191;-68
2023/04/06 02:24:50;;;;;;;15.63;9.50;;;;;;;6.08;44.09;97589.72;5047492;28;20202;-68
2023/04/06 02:27:15;;;;;;;13.17;9.27;;;;;;;6.09;43.60;97595.75;5052514;28;20291;-68
2023/04/06 02:29:41;;;;;;;11.90;9.80;;;;;;;6.04;43.57;97583.09;5051431;28;20694;-69
2023/04/06 02:32:06;;;;;;;11.47;8.90;;;;;;;6.05;43.72;97582.16;5052549;28;20194;-69
2023/04/06 02:34:32;;;;;;;11.23;9.00;;;;;;;6.12;43.47;97585.13;5049737;28;20193;-69
2023/04/06 02:36:57;;;;;;;10.97;9.20;;;;;;;6.11;43.43;97588.66;5052822;28;20187;-69
2023/04/06 02:39:22;;;;;;;14.27;10.63;;;;;;;6.09;43.86;97585.34;5055504;28;20203;-68
2023/04/06 02:41:48;;;;;;;13.30;9.30;;;;;;;6.09;43.85;97580.13;5046599;28;20187;-70
2023/04/06 02:44:14;;;;;;;16.07;12.50;;;;;;;6.03;43.57;97578.00;5044654;28;20179;-68
2023/04/06 02:46:40;;;;;;;16.33;10.10;;;;;;;6.05;43.61;97578.72;5052119;28;20591;-69
2023/04/06 02:49:05;;;;;;;12.57;9.67;;;;;;;6.03;43.52;97581.44;5046850;28;20183;-69
2023/04/06 02:51:31;;;;;;;14.20;10.17;;;;;;;5.96;43.59;97578.41;5047424;28;20181;-68
2023/04/06 02:53:56;;;;;;;13.40;9.70;;;;;;;5.96;43.79;97581.03;5052385;28;20182;-69
2023/04/06 02:56:22;;;;;;;15.00;10.80;;;;;;;5.97;43.73;97577.47;5039473;28;20227;-69
2023/04/06 02:58:47;;;;;;;15.10;10.40;;;;;;;5.97;43.58;97574.06;5047514;28;20202;-69
2023/04/06 03:01:13;;;;;;;19.13;9.80;;;;;;;5.87;43.64;97578.25;5047849;28;20832;-66
2023/04/06 03:03:38;;;;;;;11.80;9.43;;;;;;;5.79;44.00;97584.88;5047141;28;20179;-68
2023/04/06 03:06:04;;;;;;;15.70;9.80;;;;;;;5.78;44.28;97580.63;5055716;28;20255;-68
2023/04/06 03:08:30;;;;;;;15.47;9.73;;;;;;;5.76;44.39;97579.88;5059945;28;20184;-69
2023/04/06 03:10:55;;;;;;;15.00;10.53;;;;;;;5.76;44.34;97571.28;5050959;28;20183;-68
2023/04/06 03:13:21;;;;;;;19.00;9.63;;;;;;;5.72;44.17;97578.47;5055346;28;20193;-68
2023/04/06 03:15:46;;;;;;;22.77;10.37;;;;;;;5.68;44.45;97577.03;5051023;28;20425;-69
2023/04/06 03:18:11;;;;;;;14.40;10.70;;;;;;;5.62;44.40;97577.47;5051395;28;20751;-68
2023/04/06 03:20:37;;;;;;;17.30;11.40;;;;;;;5.56;44.68;97573.53;5049937;28;20183;-68
2023/04/06 03:23:02;;;;;;;12.73;8.97;;;;;;;5.65;44.70;97575.50;5051453;28;20178;-69
2023/04/06 03:25:29;;;;;;;12.53;9.50;;;;;;;5.58;44.75;97576.88;5057048;28;20295;-70
2023/04/06 03:27:55;;;;;;;14.47;10.80;;;;;;;5.64;44.81;97573.84;5047957;28;20639;-70
2023/04/06 03:30:20;;;;;;;16.10;10.00;;;;;;;5.65;44.90;97572.91;5033734;28;20437;-66
2023/04/06 03:32:46;;;;;;;11.37;9.50;;;;;;;5.63;44.77;97566.97;5041323;28;20195;-68
2023/04/06 03:35:11;;;;;;;18.83;10.63;;;;;;;5.64;44.46;97571.22;5039356;28;20199;-69
2023/04/06 03:37:37;;;;;;;15.97;10.00;;;;;;;5.54;44.95;97576.25;5045673;28;20223;-67
2023/04/06 03:40:03;;;;;;;15.50;10.47;;;;;;;5.59;44.83;97580.31;5061992;28;20232;-68
2023/04/06 03:42:29;;;;;;;16.93;10.93;;;;;;;5.68;44.05;97583.03;5038699;28;20810;-69
2023/04/06 03:44:55;;;;;;;13.83;9.73;;;;;;;5.64;44.68;97584.22;5052049;28;20443;-69
2023/04/06 03:47:20;;;;;;;14.47;10.47;;;;;;;5.61;44.66;97581.84;5047029;28;20425;-69
2023/04/06 03:49:45;;;;;;;16.40;10.33;;;;;;;5.47;45.49;97582.88;5048846;28;20180;-69
2023/04/06 03:52:11;;;;;;;18.30;10.70;;;;;;;5.48;45.64;97583.69;5044104;28;20278;-70
2023/04/06 03:54:36;;;;;;;14.70;9.73;;;;;;;5.45;45.60;97586.50;5049690;28;20234;-69
2023/04/06 03:57:02;;;;;;;15.40;10.07;;;;;;;5.37;46.16;97589.63;5064035;28;20281;-70
2023/04/06 03:59:27;;;;;;;14.10;10.30;;;;;;;5.35;46.11;97586.34;5056067;28;20207;-70
2023/04/06 04:01:53;;;;;;;13.83;10.10;;;;;;;5.41;46.31;97590.28;5046708;28;20707;-69
2023/04/06 04:04:18;;;;;;;15.20;10.37;;;;;;;5.37;45.73;97587.03;5050019;28;20179;-69
2023/04/06 04:06:44;;;;;;;15.27;10.47;;;;;;;5.29;46.08;97603.22;5048893;28;20249;-69
2023/04/06 04:09:09;;;;;;;15.90;10.30;;;;;;;5.32;45.68;97597.78;5041664;28;20232;-70
2023/04/06 04:11:35;;;;;;;15.40;10.10;;;;;;;5.28;45.67;97606.75;5047692;28;20179;-68
2023/04/06 04:14:00;;;;;;;18.20;10.50;;;;;;;5.29;45.48;97598.00;5051316;28;20190;-70
2023/04/06 04:16:26;;;;;;;14.00;10.60;;;;;;;5.20;45.83;97602.09;5048243;28;20576;-71
2023/04/06 04:18:51;;;;;;;21.53;11.47;;;;;;;5.29;45.31;97603.22;5046387;28;20204;-69
2023/04/06 04:21:16;;;;;;;15.47;10.00;;;;;;;5.27;45.47;97607.69;5045729;28;20195;-69
2023/04/06 04:23:42;;;;;;;14.43;10.43;;;;;;;5.25;45.45;97601.75;5049071;28;20620;-68
2023/04/06 04:26:07;;;;;;;17.20;10.63;;;;;;;5.24;45.55;97602.69;5042518;28;20352;-70
2023/04/06 04:28:33;;;;;;;17.20;11.27;;;;;;;5.13;45.66;97597.44;5048642;28;20219;-68
2023/04/06 04:30:58;;;;;;;18.27;10.90;;;;;;;5.18;45.99;97608.31;5052539;28;20201;-69
2023/04/06 04:33:24;;;;;;;16.10;10.80;;;;;;;5.20;46.01;97603.84;5045498;28;20195;-70
2023/04/06 04:35:49;;;;;;;15.60;10.47;;;;;;;5.21;45.69;97606.34;5049228;28;20210;-69
2023/04/06 04:38:15;;;;;;;21.77;10.80;;;;;;;5.17;46.09;97606.66;5036417;28;20293;-68
2023/04/06 04:40:41;;;;;;;13.77;10.50;;;;;;;5.21;45.99;97610.69;5044771;28;20183;-67
2023/04/06 04:43:06;;;;;;;15.13;11.10;;;;;;;5.23;45.80;97611.44;5043853;28;20422;-69
2023/04/06 04:45:32;;;;;;;17.63;11.47;;;;;;;5.18;45.90;97610.91;5041954;28;20203;-68
2023/04/06 04:47:57;;;;;;;16.07;10.43;;;;;;;5.14;46.38;97604.28;5045980;28;20648;-68
2023/04/06 04:50:23;;;;;;;19.40;11.27;;;;;;;5.14;45.25;97610.31;5045994;28;20651;-69
2023/04/06 04:52:49;;;;;;;14.23;10.77;;;;;;;5.19;45.87;97605.63;5044453;28;20665;-68
2023/04/06 04:55:14;;;;;;;16.20;11.30;;;;;;;5.29;45.43;97612.75;5044632;28;20257;-68
2023/04/06 04:57:40;;;;;;;20.40;11.37;;;;;;;5.22;45.51;97617.56;5042304;28;20617;-68
2023/04/06 05:00:06;;;;;;;15.57;11.80;;;;;;;5.17;45.35;97609.25;5045528;28;20695;-68
2023/04/06 05:02:31;;;;;;;15.70;11.10;;;;;;;5.17;45.72;97619.66;5053776;28;20610;-69
2023/04/06 05:04:57;;;;;;;17.40;11.60;;;;;;;5.16;45.82;97616.22;5056344;28;20441;-70
2023/04/06 05:07:22;;;;;;;15.57;11.60;;;;;;;5.20;46.12;97611.63;5049249;28;20190;-69
2023/04/06 05:09:48;;;;;;;19.23;12.20;;;;;;;5.14;45.66;97612.91;5044996;28;20240;-71
2023/04/06 05:12:13;;;;;;;20.30;11.73;;;;;;;5.20;45.79;97615.09;5046312;28;20232;-70
2023/04/06 05:14:39;;;;;;;19.73;11.90;;;;;;;5.26;45.87;97620.78;5042314;28;20746;-70
2023/04/06 05:17:04;;;;;;;34.17;11.80;;;;;;;5.29;45.21;97616.22;5045214;28;20644;-70
2023/04/06 05:19:30;;;;;;;16.30;12.17;;;;;;;5.37;45.49;97626.88;5052230;28;20240;-69
2023/04/06 05:21:55;;;;;;;20.00;12.77;;;;;;;5.44;45.62;97626.44;5039643;28;20643;-67
2023/04/06 05:24:21;;;;;;;17.67;11.33;;;;;;;5.28;45.95;97621.50;5048458;28;20557;-70
2023/04/06 05:26:48;;;;;;;20.33;13.20;;;;;;;5.29;45.24;97630.97;5041752;28;20207;-71
2023/04/06 05:29:13;;;;;;;18.27;11.63;;;;;;;5.38;45.21;97630.28;5046328;28;21027;-71
2023/04/06 05:31:39;;;;;;;19.60;10.80;;;;;;;5.53;44.81;97637.00;5034023;28;20454;-69
2023/04/06 05:34:04;;;;;;;17.90;12.00;;;;;;;5.55;45.18;97629.09;5042842;28;20233;-68
2023/04/06 05:36:31;;;;;;;18.70;11.47;;;;;;;5.47;44.97;97628.81;5034233;28;20215;-71
2023/04/06 05:38:58;;;;;;;23.33;12.10;;;;;;;5.47;45.74;97634.00;5050396;28;20221;-70
2023/04/06 05:41:24;;;;;;;25.07;14.07;;;;;;;5.53;46.23;97636.19;5048475;28;20475;-69
2023/04/06 05:43:49;;;;;;;23.20;12.30;;;;;;;5.65;46.49;97634.47;5045676;28;20501;-71
2023/04/06 05:46:15;;;;;;;20.83;13.17;;;;;;;5.62;45.78;97637.28;5047386;28;20441;-68
2023/04/06 05:48:40;;;;;;;26.60;13.90;;;;;;;5.75;45.48;97630.25;5044797;28;20183;-69
2023/04/06 05:51:06;;;;;;;20.80;13.23;;;;;;;5.73;46.19;97629.56;5042577;28;20743;-69
2023/04/06 05:53:31;;;;;;;19.17;12.77;;;;;;;5.82;46.09;97641.88;5045157;28;20248;-70
2023/04/06 05:56:00;;;;;;;13.73;10.87;;;;;;;5.94;45.10;97632.34;5056482;28;20225;-70
2023/04/06 05:58:26;;;;;;;17.10;11.70;;;;;;;6.14;44.48;97640.50;5044337;28;20273;-70
2023/04/06 06:00:56;;;;;;;15.80;11.50;;;;;;;6.25;43.89;97632.72;5041520;28;20901;-70
2023/04/06 06:03:22;;;;;;;20.10;13.50;;;;;;;6.36;43.09;97639.72;5056536;28;20435;-69
2023/04/06 06:05:48;;;;;;;17.10;11.37;;;;;;;6.51;42.79;97637.75;5055656;28;20450;-69
2023/04/06 06:08:13;;;;;;;20.37;12.27;;;;;;;6.68;42.27;97640.84;5042965;28;20186;-68
2023/04/06 06:10:40;;;;;;;16.23;11.77;;;;;;;6.80;41.87;97645.13;5045089;28;20561;-69
2023/04/06 06:13:05;;;;;;;17.67;11.87;;;;;;;6.83;41.09;97646.66;5053687;28;20181;-69
2023/04/06 06:15:30;;;;;;;20.30;12.60;;;;;;;7.11;41.38;97644.53;5035405;28;20433;-68
2023/04/06 06:17:56;;;;;;;18.07;12.17;;;;;;;7.27;40.79;97647.56;5044398;28;20204;-68
2023/04/06 06:20:21;;;;;;;18.90;12.27;;;;;;;7.29;41.05;97647.47;5042825;28;20637;-69
2023/04/06 06:22:47;;;;;;;20.00;12.40;;;;;;;7.41;40.54;97646.50;5042854;28;20187;-70
2023/04/06 06:25:13;;;;;;;16.47;11.07;;;;;;;7.57;40.36;97642.66;5034837;28;20571;-70
2023/04/06 06:27:38;;;;;;;15.93;11.40;;;;;;;7.72;40.63;97638.81;5045586;28;20187;-70
2023/04/06 06:30:04;;;;;;;18.20;11.67;;;;;;;7.86;40.23;97639.47;5040647;28;20533;-70
2023/04/06 06:32:30;;;;;;;18.83;11.77;;;;;;;8.00;40.00;97652.25;5052360;28;20243;-69
2023/04/06 06:34:55;;;;;;;18.00;11.00;;;;;;;8.15;40.01;97645.78;5040487;28;20440;-72
2023/04/06 06:37:21;;;;;;;14.30;10.50;;;;;;;8.23;38.99;97647.75;5037172;28;20186;-70
2023/04/06 06:39:46;;;;;;;16.90;12.10;;;;;;;8.46;38.84;97643.22;5046839;28;20343;-70
2023/04/06 06:42:12;;;;;;;17.20;12.33;;;;;;;8.65;39.08;97646.09;5061797;28;20190;-70
2023/04/06 06:44:37;;;;;;;17.70;11.20;;;;;;;8.88;39.04;97646.78;5050396;28;20234;-68
2023/04/06 06:47:02;;;;;;;21.90;11.67;;;;;;;9.05;38.50;97643.56;5044221;28;20640;-70
2023/04/06 06:49:28;;;;;;;16.60;10.60;;;;;;;9.25;38.01;97643.59;5045000;28;20180;-70
2023/04/06 06:51:53;;;;;;;16.63;10.70;;;;;;;9.51;37.84;97645.75;5044252;28;20178;-69
2023/04/06 06:54:19;;;;;;;20.23;11.20;;;;;;;9.65;37.51;97640.13;5045560;28;20276;-70
2023/04/06 06:56:45;;;;;;;15.90;11.43;;;;;;;9.82;37.14;97645.66;5050178;28;20209;-72
2023/04/06 06:59:11;;;;;;;18.70;10.77;;;;;;;9.94;37.18;97641.94;5044497;28;20199;-71
2023/04/06 07:01:36;;;;;;;15.13;10.00;;;;;;;9.90;35.79;97642.31;5051845;28;20498;-69
2023/04/06 07:04:02;;;;;;;13.03;10.00;;;;;;;9.74;36.43;97645.50;5066310;28;20262;-70
2023/04/06 07:06:27;;;;;;;14.23;10.73;;;;;;;9.93;36.49;97637.66;5047916;28;20625;-70
2023/04/06 07:08:53;;;;;;;19.13;11.30;;;;;;;10.03;36.59;97640.25;5056408;28;20178;-70
2023/04/06 07:11:18;;;;;;;17.90;11.63;;;;;;;10.30;36.27;97639.56;5062346;28;20189;-69
2023/04/06 07:13:43;;;;;;;17.60;11.07;;;;;;;10.37;35.28;97639.00;5059086;28;20187;-71
2023/04/06 07:16:09;;;;;;;17.57;11.33;;;;;;;10.64;36.05;97643.53;5050360;28;20583;-70
2023/04/06 07:18:34;;;;;;;20.20;12.53;;;;;;;10.91;35.45;97644.53;5050102;28;20236;-70
2023/04/06 07:21:00;;;;;;;15.93;11.10;;;;;;;10.86;34.53;97650.22;5054900;28;20199;-70
2023/04/06 07:23:25;;;;;;;13.70;10.80;;;;;;;10.75;34.65;97655.63;5061831;28;20205;-70
2023/04/06 07:25:53;;;;;;;12.73;10.10;;;;;;;10.68;34.56;97649.31;5062077;28;20206;-70
2023/04/06 07:28:18;;;;;;;15.40;11.13;;;;;;;11.00;34.47;97646.31;5049893;28;20272;-70
2023/04/06 07:30:44;;;;;;;18.80;10.70;;;;;;;11.34;34.08;97637.88;5052485;28;20502;-70
2023/04/06 07:33:09;;;;;;;19.43;10.93;;;;;;;11.53;33.59;97646.59;5047999;28;20240;-70
2023/04/06 07:35:36;;;;;;;16.00;11.07;;;;;;;11.83;33.61;97637.56;5054994;28;20750;-70
2023/04/06 07:38:02;;;;;;;18.40;10.33;;;;;;;12.09;33.32;97636.84;5054987;28;20197;-70
2023/04/06 07:40:27;;;;;;;18.03;11.30;;;;;;;12.21;32.26;97645.31;5066021;28;20838;-70
2023/04/06 07:42:53;;;;;;;14.57;10.23;;;;;;;12.32;32.08;97635.53;5053844;28;20466;-69
2023/04/06 07:45:18;;;;;;;16.87;11.27;;;;;;;12.38;32.56;97643.63;5059803;28;20203;-70
2023/04/06 07:47:45;;;;;;;13.93;10.77;;;;;;;12.60;32.28;97644.13;5041614;28;20214;-69
2023/04/06 07:50:11;;;;;;;17.27;10.67;;;;;;;12.83;31.59;97639.16;5049934;28;20220;-69
2023/04/06 07:52:36;;;;;;;16.73;10.90;;;;;;;13.02;31.44;97640.72;5050153;28;20427;-70
2023/04/06 07:55:02;;;;;;;15.87;10.97;;;;;;;13.15;30.97;97642.94;5057493;28;20231;-71
2023/04/06 07:57:27;;;;;;;12.60;11.10;;;;;;;13.34;30.82;97636.59;5051351;28;20237;-69
2023/04/06 07:59:53;;;;;;;16.43;11.17;;;;;;;13.58;30.57;97637.69;5047057;28;20191;-71
2023/04/06 08:02:18;;;;;;;18.40;10.40;;;;;;;13.75;29.76;97637.69;5050851;28;20191;-71
2023/04/06 08:04:44;;;;;;;15.03;10.90;;;;;;;13.55;29.56;97640.63;5043158;28;20213;-70
2023/04/06 08:07:09;;;;;;;15.47;11.10;;;;;;;13.72;29.82;97636.22;5055661;28;20217;-70
2023/04/06 08:09:35;;;;;;;11.40;10.20;;;;;;;14.05;29.54;97630.97;5053827;28;20183;-70
2023/04/06 08:12:00;;;;;;;13.00;10.67;;;;;;;14.19;28.48;97626.88;5051745;28;20597;-70
2023/04/06 08:14:26;;;;;;;14.57;10.37;;;;;;;14.45;28.54;97639.06;5052630;28;20231;-69
2023/04/06 08:16:51;;;;;;;12.30;9.40;;;;;;;14.72;28.41;97639.72;5046395;28;20283;-70
2023/04/06 08:19:18;;;;;;;14.73;10.27;;;;;;;14.92;27.78;97634.06;5055608;28;20241;-71
2023/04/06 08:21:47;;;;;;;16.83;10.50;;;;;;;15.17;27.14;97638.25;5047285;28;20241;-71
2023/04/06 08:24:13;;;;;;;15.27;10.30;;;;;;;15.23;27.03;97634.09;5036567;28;20895;-70
2023/04/06 08:26:38;;;;;;;19.10;10.50;;;;;;;15.29;26.91;97635.22;5053466;28;20827;-70
2023/04/06 08:29:07;;;;;;;21.90;10.80;;;;;;;15.47;26.44;97627.91;5047647;28;20411;-71
2023/04/06 08:31:33;;;;;;;15.53;10.10;;;;;;;15.73;26.84;97632.03;5054080;28;20226;-70
2023/04/06 08:33:59;;;;;;;14.80;10.47;;;;;;;15.76;25.88;97631.69;5061669;28;20428;-69
2023/04/06 08:36:24;;;;;;;13.80;10.80;;;;;;;16.02;26.23;97633.19;5043709;28;20853;-70
2023/04/06 08:38:50;;;;;;;15.87;10.20;;;;;;;15.97;25.61;97631.06;5049396;28;20203;-72
2023/04/06 08:41:18;;;;;;;15.87;10.47;;;;;;;16.06;25.34;97631.03;5056787;28;20274;-71
2023/04/06 08:43:49;;;;;;;14.90;10.80;;;;;;;16.13;24.62;97631.94;5051109;28;20178;-72
2023/04/06 08:46:14;;;;;;;12.37;9.90;;;;;;;15.97;24.71;97622.34;5047045;28;20444;-71
2023/04/06 08:48:42;;;;;;;14.93;10.87;;;;;;;16.23;25.08;97626.44;5046034;28;20857;-71
2023/04/06 08:51:11;;;;;;;14.63;10.00;;;;;;;16.40;24.31;97627.09;5051314;28;20182;-71
2023/04/06 08:53:37;;;;;;;13.33;10.57;;;;;;;16.62;23.64;97624.56;5038230;28;20461;-71
2023/04/06 08:56:03;;;;;;;15.13;10.47;;;;;;;16.80;22.57;97624.22;5056887;28;20865;-71
2023/04/06 08:58:37;;;;;;;13.90;10.70;;;;;;;16.85;22.77;97619.22;5049090;28;20497;-71
2023/04/06 09:01:07;;;;;;;12.83;9.70;;;;;;;16.57;22.20;97622.47;5037254;28;20433;-70
2023/04/06 09:03:38;;;;;;;13.97;10.30;;;;;;;16.71;22.21;97613.75;5046786;28;20897;-71
2023/04/06 09:06:04;;;;;;;14.97;10.10;;;;;;;17.17;22.44;97617.22;5041144;28;20433;-70
2023/04/06 09:08:29;;;;;;;11.30;9.30;;;;;;;17.41;22.85;97610.81;5040024;28;20520;-70
2023/04/06 09:10:55;;;;;;;14.70;9.80;;;;;;;17.81;22.65;97610.41;5050711;28;20278;-70
2023/04/06 09:13:20;;;;;;;13.23;9.73;;;;;;;17.61;22.14;97603.06;5049781;28;20222;-70
2023/04/06 09:15:46;;;;;;;12.63;9.47;;;;;;;17.56;21.99;97610.75;5048501;28;20202;-70
2023/04/06 09:18:11;;;;;;;14.03;9.43;;;;;;;17.77;22.19;97617.06;5048993;28;20203;-71
2023/04/06 09:20:37;;;;;;;11.47;9.10;;;;;;;17.73;21.09;97615.84;5037068;28;20179;-70
2023/04/06 09:23:02;;;;;;;10.90;8.37;;;;;;;17.49;22.08;97615.16;5048360;28;20191;-70
2023/04/06 09:25:28;;;;;;;15.47;8.30;;;;;;;17.95;21.54;97620.13;5040925;28;20203;-70
2023/04/06 09:28:04;;;;;;;9.67;8.67;;;;;;;17.68;21.00;97619.03;5050267;28;20790;-70
2023/04/06 09:30:29;;;;;;;10.57;9.47;;;;;;;17.79;20.45;97626.50;5043938;28;20187;-71
2023/04/06 09:32:56;;;;;;;11.97;9.20;;;;;;;18.01;20.87;97617.78;5036248;28;20468;-70
2023/04/06 09:35:22;;;;;;;10.93;8.93;;;;;;;18.12;20.50;97614.59;5043168;28;20207;-70
2023/04/06 09:37:50;;;;;;;11.53;9.60;;;;;;;17.91;20.84;97610.91;5045089;28;20468;-71
2023/04/06 09:40:17;;;;;;;11.60;9.23;;;;;;;18.26;20.83;97611.06;5038208;28;20433;-70
2023/04/06 09:42:46;;;;;;;12.33;9.00;;;;;;;18.38;20.06;97613.19;5047530;28;20436;-71
2023/04/06 09:45:11;;;;;;;9.67;8.00;;;;;;;18.55;20.81;97606.56;5047627;28;20482;-71
2023/04/06 09:47:37;;;;;;;12.20;9.33;;;;;;;18.78;20.26;97599.34;5042567;28;20511;-71
2023/04/06 09:50:03;;;;;;;11.30;9.53;;;;;;;19.00;20.08;97602.78;5046547;28;20225;-70
2023/04/06 09:52:43;;;;;;;9.03;8.00;;;;;;;19.05;19.56;97597.69;5048451;28;20962;-70
2023/04/06 09:55:09;;;;;;;10.67;8.90;;;;;;;18.72;19.52;97600.94;5047228;28;20199;-70
2023/04/06 09:57:45;;;;;;;10.90;8.10;;;;;;;18.84;19.97;97596.75;5046673;28;20421;-71
2023/04/06 10:00:12;;;;;;;9.50;8.50;;;;;;;18.97;19.64;97606.63;5047971;28;20431;-71
2023/04/06 10:03:06;;;;;;;9.83;7.97;;;;;;;18.78;19.37;97597.50;5047225;28;20788;-70
2023/04/06 10:05:52;;;;;;;13.30;7.80;;;;;;;18.97;19.21;97597.84;5043747;28;20989;-70
2023/04/06 10:08:19;;;;;;;9.13;7.47;;;;;;;19.16;19.20;97596.31;5053045;28;20539;-70
2023/04/06 10:10:44;;;;;;;9.20;7.70;;;;;;;19.69;19.68;97593.00;5046967;28;20476;-73
2023/04/06 10:13:11;;;;;;;11.03;8.50;;;;;;;19.61;19.31;97585.22;5052128;28;20460;-70
2023/04/06 10:15:38;;;;;;;13.93;9.20;;;;;;;19.88;19.59;97593.28;5056264;28;20207;-70
2023/04/06 10:18:03;;;;;;;11.10;8.37;;;;;;;19.26;18.59;97588.78;5039414;28;20465;-70
2023/04/06 10:20:47;;;;;;;8.97;8.07;;;;;;;18.86;19.27;97594.72;5047840;28;20797;-71
2023/04/06 10:23:44;;;;;;;8.80;7.67;;;;;;;19.17;19.14;97588.13;5045116;28;20595;-71
2023/04/06 10:26:16;;;;;;;10.17;7.83;;;;;;;19.48;19.51;97584.16;5034973;28;20435;-69
2023/04/06 10:28:42;;;;;;;10.93;8.60;;;;;;;19.84;19.08;97592.00;5055201;28;20416;-72
2023/04/06 10:31:08;;;;;;;8.10;7.10;;;;;;;19.37;18.41;97587.41;5043511;28;21134;-70
2023/04/06 10:33:33;;;;;;;11.10;8.00;;;;;;;19.39;18.72;97590.69;5038828;28;20437;-71
2023/04/06 10:36:12;;;;;;;9.47;8.10;;;;;;;19.33;18.64;97594.97;5046306;28;20217;-70
2023/04/06 10:38:39;;;;;;;8.37;7.37;;;;;;;19.41;18.30;97596.59;5040808;28;20729;-70
2023/04/06 10:41:09;;;;;;;11.10;7.00;;;;;;;19.76;18.57;97582.38;5046338;28;20429;-71
2023/04/06 10:43:36;;;;;;;12.20;7.10;;;;;;;20.02;18.91;97578.97;5048678;28;21009;-70
2023/04/06 10:46:02;;;;;;;8.13;6.93;;;;;;;20.17;18.27;97583.25;5042147;28;20516;-70
2023/04/06 10:48:42;;;;;;;10.17;7.50;;;;;;;20.60;17.69;97572.16;5042373;28;20443;-70
2023/04/06 10:51:13;;;;;;;8.47;6.83;;;;;;;20.92;18.68;97569.63;5046248;28;20844;-71
2023/04/06 10:53:44;;;;;;;9.70;7.37;;;;;;;21.07;17.83;97576.56;5043704;28;20918;-71
2023/04/06 10:56:11;;;;;;;9.63;8.60;;;;;;;20.85;17.93;97571.53;5038565;28;20961;-70
2023/04/06 10:58:37;;;;;;;9.23;7.80;;;;;;;20.68;17.64;97566.59;5045849;28;20462;-71
2023/04/06 11:01:03;;;;;;;13.40;7.93;;;;;;;20.46;18.07;97576.69;5039472;28;20480;-71
2023/04/06 11:03:29;;;;;;;9.60;7.60;;;;;;;20.50;17.90;97577.91;5039214;28;20530;-70
2023/04/06 11:05:54;;;;;;;16.20;7.63;;;;;;;20.91;18.19;97570.69;5046889;28;20214;-70
2023/04/06 11:08:32;;;;;;;8.63;7.07;;;;;;;21.16;18.24;97562.81;5056142;28;20466;-71
2023/04/06 11:11:06;;;;;;;8.90;7.70;;;;;;;21.44;18.10;97566.16;5037545;28;20186;-71
2023/04/06 11:14:01;;;;;;;13.73;8.27;;;;;;;21.35;17.73;97570.09;5042540;28;20434;-71
2023/04/06 11:16:29;;;;;;;12.77;7.27;;;;;;;21.25;18.26;97565.22;5036308;28;20464;-70
2023/04/06 11:18:59;;;;;;;10.10;8.07;;;;;;;21.15;17.81;97563.81;5047758;28;20465;-70
2023/04/06 11:21:36;;;;;;;8.93;8.03;;;;;;;20.94;17.91;97562.25;5043898;28;20953;-70
2023/04/06 11:24:09;;;;;;;16.10;8.43;;;;;;;20.55;17.97;97553.31;5043299;28;20437;-70